Time;durP1;ratioP1;P1;durP2;ratioP2;P2;SDS_P1;SDS_P2;PMS_P1;PMS_P2;Temp;Humidity;BMP_temperature;BMP_pressure;BME280_temperature;BME280_humidity;BME280_pressure;Samples;Min_cycle;Max_cycle;Signal;HPM_P1;HPM_P2
2023/08/19 00:01:41;;;;;;;2.90;2.60;;;20.30;99.90;;;;;;5090474;28;20446;-66
2023/08/19 00:04:08;;;;;;;2.30;2.10;;;20.20;99.90;;;;;;5090674;28;20860;-66
2023/08/19 00:06:39;;;;;;;2.77;2.57;;;20.20;99.90;;;;;;5090460;28;20456;-66
2023/08/19 00:09:08;;;;;;;3.63;2.83;;;20.20;99.90;;;;;;5090779;28;20503;-66
2023/08/19 00:11:37;;;;;;;2.90;2.60;;;20.10;99.90;;;;;;5090148;28;20460;-67
2023/08/19 00:14:05;;;;;;;2.87;2.67;;;20.10;99.90;;;;;;5083201;28;20454;-66
2023/08/19 00:16:33;;;;;;;2.87;2.60;;;20.10;99.90;;;;;;5069869;28;20865;-66
2023/08/19 00:19:00;;;;;;;3.17;2.87;;;20.00;99.90;;;;;;5070166;28;20478;-66
2023/08/19 00:21:27;;;;;;;3.50;2.63;;;20.00;99.90;;;;;;5068722;28;20549;-67
2023/08/19 00:23:54;;;;;;;3.30;3.03;;;20.00;99.90;;;;;;5070389;28;20478;-66
2023/08/19 00:26:21;;;;;;;3.00;2.70;;;19.90;99.90;;;;;;5069914;28;20508;-66
2023/08/19 00:28:49;;;;;;;3.13;2.70;;;20.00;99.90;;;;;;5069831;28;20481;-67
2023/08/19 00:31:16;;;;;;;4.23;2.67;;;19.90;99.90;;;;;;5069641;28;20841;-66
2023/08/19 00:33:42;;;;;;;3.77;2.70;;;19.90;99.90;;;;;;5082602;28;20459;-67
2023/08/19 00:36:09;;;;;;;2.60;1.93;;;19.80;99.90;;;;;;5090121;28;20461;-67
2023/08/19 00:38:36;;;;;;;2.63;2.43;;;19.80;99.90;;;;;;5089626;28;20466;-67
2023/08/19 00:41:03;;;;;;;4.57;2.63;;;19.80;99.90;;;;;;5090007;28;20457;-67
2023/08/19 00:43:31;;;;;;;3.70;2.40;;;19.80;99.90;;;;;;5089703;28;20533;-67
2023/08/19 00:45:59;;;;;;;2.77;2.23;;;19.70;99.90;;;;;;5090191;28;20518;-67
2023/08/19 00:48:26;;;;;;;2.97;2.77;;;19.70;99.90;;;;;;5089389;28;20959;-67
2023/08/19 00:50:57;;;;;;;3.10;2.80;;;19.70;99.90;;;;;;5089866;28;20457;-67
2023/08/19 00:53:23;;;;;;;4.63;3.30;;;19.70;99.90;;;;;;5089985;28;20973;-67
2023/08/19 00:55:50;;;;;;;3.50;2.60;;;19.60;99.90;;;;;;5090133;28;20461;-67
2023/08/19 00:58:17;;;;;;;3.30;3.00;;;19.60;99.90;;;;;;5089532;28;20475;-67
2023/08/19 01:00:44;;;;;;;3.10;2.47;;;19.60;99.90;;;;;;5077358;28;20956;-67
2023/08/19 01:03:12;;;;;;;3.10;2.70;;;19.60;99.90;;;;;;5069758;28;20481;-67
2023/08/19 01:05:49;;;;;;;3.07;2.77;;;19.50;99.90;;;;;;5069396;28;20459;-67
2023/08/19 01:08:23;;;;;;;3.90;2.70;;;19.50;99.90;;;;;;5086279;28;21119;-66
2023/08/19 01:11:01;;;;;;;3.37;2.73;;;19.50;99.90;;;;;;5089723;28;20463;-66
2023/08/19 01:13:34;;;;;;;3.87;2.60;;;19.50;99.90;;;;;;5089532;28;20448;-67
2023/08/19 01:16:08;;;;;;;4.83;2.97;;;19.50;99.90;;;;;;5089834;28;21152;-67
2023/08/19 01:18:40;;;;;;;4.70;2.83;;;19.50;99.90;;;;;;5089149;28;20451;-67
2023/08/19 01:21:08;;;;;;;3.87;2.60;;;19.40;99.90;;;;;;5089619;28;20451;-67
2023/08/19 01:23:40;;;;;;;3.40;3.10;;;19.40;99.90;;;;;;5089377;28;21041;-66
2023/08/19 01:26:08;;;;;;;3.53;2.57;;;19.40;99.90;;;;;;5075045;28;20721;-66
2023/08/19 01:28:35;;;;;;;3.77;2.77;;;19.40;99.90;;;;;;5069137;28;20458;-66
2023/08/19 01:31:02;;;;;;;3.80;2.60;;;19.40;99.90;;;;;;5069295;28;20579;-67
2023/08/19 01:33:29;;;;;;;3.33;2.90;;;19.30;99.90;;;;;;5072457;28;20834;-67
2023/08/19 01:36:04;;;;;;;2.77;2.50;;;19.30;99.90;;;;;;5073273;28;20467;-66
2023/08/19 01:38:39;;;;;;;2.70;2.27;;;19.30;99.90;;;;;;5072502;28;20463;-66
2023/08/19 01:41:06;;;;;;;3.30;2.70;;;19.30;99.90;;;;;;5073057;28;20466;-66
2023/08/19 01:43:35;;;;;;;3.40;3.10;;;19.30;99.90;;;;;;5072552;28;21034;-66
2023/08/19 01:46:02;;;;;;;2.60;2.17;;;19.20;99.90;;;;;;5073134;28;20948;-66
2023/08/19 01:48:29;;;;;;;2.77;2.57;;;19.20;99.90;;;;;;5072330;28;20485;-66
2023/08/19 01:50:56;;;;;;;3.13;2.83;;;19.20;99.90;;;;;;5072806;28;20461;-67
2023/08/19 01:53:22;;;;;;;4.10;2.70;;;19.10;99.90;;;;;;5072743;28;20458;-67
2023/08/19 01:55:49;;;;;;;2.73;2.53;;;19.10;99.90;;;;;;5072815;28;20453;-66
2023/08/19 01:58:16;;;;;;;3.17;2.60;;;19.10;99.90;;;;;;5072813;28;20806;-66
2023/08/19 02:00:44;;;;;;;2.60;2.40;;;19.10;99.90;;;;;;5072278;28;20465;-66
2023/08/19 02:03:11;;;;;;;3.50;2.37;;;19.10;99.90;;;;;;5072627;28;21029;-67
2023/08/19 02:05:37;;;;;;;2.63;2.43;;;19.10;99.90;;;;;;5072525;28;20495;-66
2023/08/19 02:08:05;;;;;;;2.70;2.50;;;19.00;99.90;;;;;;5072456;28;20468;-66
2023/08/19 02:10:32;;;;;;;2.60;2.03;;;19.00;99.90;;;;;;5072242;28;20476;-66
2023/08/19 02:12:59;;;;;;;2.80;2.50;;;19.00;99.90;;;;;;5072687;28;20948;-67
2023/08/19 02:15:25;;;;;;;3.90;2.13;;;19.00;99.90;;;;;;5072269;28;20472;-67
2023/08/19 02:17:54;;;;;;;4.07;2.50;;;18.90;99.90;;;;;;5072239;28;20461;-66
2023/08/19 02:20:20;;;;;;;2.30;2.10;;;18.90;99.90;;;;;;5072296;28;20585;-67
2023/08/19 02:22:47;;;;;;;2.83;2.57;;;18.90;99.90;;;;;;5075558;28;20800;-67
2023/08/19 02:25:14;;;;;;;3.33;2.50;;;18.90;99.90;;;;;;5085717;28;20458;-66
2023/08/19 02:27:40;;;;;;;3.30;2.40;;;18.90;99.90;;;;;;5071817;28;20833;-66
2023/08/19 02:30:10;;;;;;;2.83;2.63;;;18.80;99.90;;;;;;5086630;28;20560;-66
2023/08/19 02:32:36;;;;;;;3.07;2.57;;;18.80;99.90;;;;;;5092173;28;20459;-66
2023/08/19 02:35:05;;;;;;;3.40;2.40;;;18.80;99.90;;;;;;5092367;28;20464;-66
2023/08/19 02:37:32;;;;;;;3.03;2.60;;;18.80;99.90;;;;;;5074245;28;20958;-67
2023/08/19 02:39:58;;;;;;;3.90;2.30;;;18.80;99.90;;;;;;5071888;28;20479;-66
2023/08/19 02:42:25;;;;;;;2.30;2.10;;;18.70;99.90;;;;;;5071595;28;20987;-65
2023/08/19 02:44:52;;;;;;;3.10;2.80;;;18.70;99.90;;;;;;5064825;28;20493;-66
2023/08/19 02:47:19;;;;;;;2.20;2.00;;;18.70;99.90;;;;;;5066753;28;20463;-67
2023/08/19 02:49:45;;;;;;;2.43;2.17;;;18.70;99.90;;;;;;5067528;28;21183;-67
2023/08/19 02:52:14;;;;;;;3.10;2.37;;;18.60;99.90;;;;;;5064942;28;20959;-66
2023/08/19 02:54:41;;;;;;;4.43;2.77;;;18.60;99.90;;;;;;5064311;28;20553;-67
2023/08/19 02:57:07;;;;;;;3.13;2.83;;;18.60;99.90;;;;;;5068055;28;20452;-67
2023/08/19 02:59:34;;;;;;;2.77;2.57;;;18.60;99.90;;;;;;5062918;28;20485;-67
2023/08/19 03:02:01;;;;;;;2.27;2.10;;;18.50;99.90;;;;;;5076567;28;20452;-66
2023/08/19 03:04:27;;;;;;;3.23;2.43;;;18.50;99.90;;;;;;5091620;28;20552;-66
2023/08/19 03:06:54;;;;;;;2.50;2.30;;;18.60;99.90;;;;;;5087121;28;20485;-67
2023/08/19 03:09:22;;;;;;;3.50;2.80;;;18.50;99.90;;;;;;5071445;28;20477;-66
2023/08/19 03:11:49;;;;;;;2.57;2.37;;;18.50;99.90;;;;;;5071084;28;20465;-66
2023/08/19 03:14:16;;;;;;;2.20;2.00;;;18.50;99.90;;;;;;5071444;28;20452;-67
2023/08/19 03:16:42;;;;;;;4.03;3.00;;;18.50;99.90;;;;;;5070818;28;20468;-66
2023/08/19 03:19:09;;;;;;;3.50;2.87;;;18.50;99.90;;;;;;5071631;28;20482;-67
2023/08/19 03:21:36;;;;;;;3.57;2.80;;;18.50;99.90;;;;;;5068712;28;20460;-67
2023/08/19 03:24:03;;;;;;;3.97;2.63;;;18.50;99.90;;;;;;5071055;28;20901;-66
2023/08/19 03:26:31;;;;;;;3.40;3.10;;;18.50;99.90;;;;;;5071060;28;20486;-66
2023/08/19 03:28:58;;;;;;;4.10;2.90;;;18.50;99.90;;;;;;5070548;28;20476;-66
2023/08/19 03:31:25;;;;;;;3.23;2.83;;;18.50;99.90;;;;;;5070917;28;20841;-67
2023/08/19 03:33:53;;;;;;;2.87;2.57;;;18.50;99.90;;;;;;5070592;28;20479;-67
2023/08/19 03:36:20;;;;;;;2.27;2.10;;;18.50;99.90;;;;;;5071121;28;20464;-66
2023/08/19 03:38:47;;;;;;;3.13;2.60;;;18.50;99.90;;;;;;5070245;28;20573;-66
2023/08/19 03:41:13;;;;;;;4.40;2.80;;;18.50;99.90;;;;;;5070733;28;20451;-66
2023/08/19 03:43:41;;;;;;;3.33;2.77;;;18.50;99.90;;;;;;5080188;28;20592;-66
2023/08/19 03:46:10;;;;;;;2.67;2.47;;;18.50;99.90;;;;;;5090986;28;20811;-66
2023/08/19 03:48:36;;;;;;;3.57;3.07;;;18.50;99.90;;;;;;5090530;28;20461;-66
2023/08/19 03:51:03;;;;;;;3.10;2.10;;;18.50;99.90;;;;;;5090552;28;20461;-67
2023/08/19 03:53:30;;;;;;;3.20;2.90;;;18.50;99.90;;;;;;5090828;28;20478;-66
2023/08/19 03:55:56;;;;;;;3.43;2.90;;;18.50;99.90;;;;;;5090476;28;20489;-67
2023/08/19 03:58:23;;;;;;;3.93;3.03;;;18.50;99.90;;;;;;5090638;28;21133;-66
2023/08/19 04:00:51;;;;;;;2.50;2.30;;;18.50;99.90;;;;;;5090342;28;20466;-66
2023/08/19 04:03:18;;;;;;;2.60;2.17;;;18.50;99.90;;;;;;5090995;28;20456;-66
2023/08/19 04:05:45;;;;;;;3.80;3.17;;;18.40;99.90;;;;;;5090682;28;20860;-66
2023/08/19 04:08:11;;;;;;;3.60;2.60;;;18.40;99.90;;;;;;5090411;28;20460;-66
2023/08/19 04:10:38;;;;;;;3.20;2.50;;;18.40;99.90;;;;;;5090280;28;20662;-67
2023/08/19 04:13:05;;;;;;;3.87;3.20;;;18.40;99.90;;;;;;5090743;28;20466;-66
2023/08/19 04:15:31;;;;;;;2.67;2.47;;;18.40;99.90;;;;;;5090931;28;20465;-66
2023/08/19 04:17:59;;;;;;;3.50;2.97;;;18.40;99.90;;;;;;5070157;28;20862;-67
2023/08/19 04:20:26;;;;;;;2.90;2.27;;;18.30;99.90;;;;;;5070327;28;20477;-66
2023/08/19 04:22:53;;;;;;;2.70;2.50;;;18.30;99.90;;;;;;5070116;28;20975;-66
2023/08/19 04:25:19;;;;;;;4.13;2.73;;;18.30;99.90;;;;;;5070420;28;20825;-66
2023/08/19 04:27:46;;;;;;;2.83;2.50;;;18.30;99.90;;;;;;5069891;28;20466;-66
2023/08/19 04:30:14;;;;;;;3.03;2.77;;;18.30;99.90;;;;;;5070209;28;20480;-66
2023/08/19 04:32:41;;;;;;;2.63;2.43;;;18.30;99.90;;;;;;5070321;28;20463;-66
2023/08/19 04:35:11;;;;;;;2.60;2.40;;;18.20;99.90;;;;;;5070472;28;20454;-65
2023/08/19 04:37:38;;;;;;;4.13;2.70;;;18.30;99.90;;;;;;5070303;28;20487;-66
2023/08/19 04:40:09;;;;;;;2.60;2.40;;;18.20;99.90;;;;;;5069759;28;21013;-66
2023/08/19 04:42:35;;;;;;;2.77;2.50;;;18.30;99.90;;;;;;5087097;28;20467;-66
2023/08/19 04:45:04;;;;;;;3.80;2.67;;;18.20;99.90;;;;;;5090194;28;20484;-65
2023/08/19 04:47:31;;;;;;;5.10;2.70;;;18.30;99.90;;;;;;5090328;28;20894;-66
2023/08/19 04:49:58;;;;;;;4.63;2.80;;;18.20;99.90;;;;;;5089701;28;20482;-65
2023/08/19 04:52:27;;;;;;;3.03;2.40;;;18.20;99.90;;;;;;5090489;28;20459;-66
2023/08/19 04:54:53;;;;;;;2.83;2.60;;;18.30;99.90;;;;;;5089681;28;20882;-66
2023/08/19 04:57:20;;;;;;;7.63;3.17;;;18.30;99.90;;;;;;5090232;28;20196;-66
2023/08/19 04:59:47;;;;;;;3.27;2.50;;;18.30;99.90;;;;;;5073516;28;20484;-65
2023/08/19 05:02:13;;;;;;;4.10;3.47;;;18.30;99.90;;;;;;5067135;28;20447;-65
2023/08/19 05:04:40;;;;;;;14.20;4.67;;;18.30;99.90;;;;;;5063922;28;20480;-65
2023/08/19 05:07:07;;;;;;;2.63;2.43;;;18.30;99.90;;;;;;5064696;28;20490;-66
2023/08/19 05:09:35;;;;;;;4.17;2.67;;;18.40;99.90;;;;;;5065570;28;20478;-65
2023/08/19 05:12:02;;;;;;;3.00;2.53;;;18.40;99.90;;;;;;5067499;28;20820;-66
2023/08/19 05:14:28;;;;;;;3.67;2.70;;;18.50;99.90;;;;;;5066748;28;20493;-66
2023/08/19 05:16:55;;;;;;;5.07;3.27;;;18.50;99.90;;;;;;5135571;22;20484;-67
2023/08/19 05:19:22;;;;;;;4.03;3.03;;;18.50;99.90;;;;;;5044000;28;20830;-66
2023/08/19 05:21:49;;;;;;;3.70;3.00;;;18.60;99.90;;;;;;5040496;28;20456;-67
2023/08/19 05:24:16;;;;;;;3.80;2.63;;;18.60;99.90;;;;;;5039899;28;20855;-66
2023/08/19 05:26:45;;;;;;;3.07;2.70;;;18.60;99.90;;;;;;5041218;28;20559;-67
2023/08/19 05:29:12;;;;;;;4.63;2.57;;;18.60;99.90;;;;;;5042190;28;20489;-67
2023/08/19 05:31:39;;;;;;;3.73;2.90;;;18.70;99.90;;;;;;5033126;28;20463;-66
2023/08/19 05:34:07;;;;;;;5.47;2.70;;;18.80;99.90;;;;;;5040959;28;20456;-67
2023/08/19 05:36:34;;;;;;;2.63;2.43;;;18.80;99.90;;;;;;5043072;28;20459;-66
2023/08/19 05:39:01;;;;;;;2.50;2.30;;;18.90;99.90;;;;;;5042645;28;21018;-67
2023/08/19 05:41:28;;;;;;;3.97;2.97;;;19.00;99.90;;;;;;5041187;28;20460;-67
2023/08/19 05:43:56;;;;;;;4.50;3.27;;;19.00;99.90;;;;;;5042118;28;21163;-67
2023/08/19 05:46:23;;;;;;;3.00;2.37;;;19.10;99.90;;;;;;5043158;28;20463;-67
2023/08/19 05:48:49;;;;;;;2.90;2.50;;;19.20;99.90;;;;;;5040957;28;20476;-67
2023/08/19 05:51:16;;;;;;;5.27;2.77;;;19.20;99.90;;;;;;5042536;28;20833;-67
2023/08/19 05:53:43;;;;;;;4.13;2.50;;;19.30;99.90;;;;;;5042876;28;20457;-66
2023/08/19 05:56:09;;;;;;;2.73;2.50;;;19.30;99.90;;;;;;5041086;28;20453;-67
2023/08/19 05:58:38;;;;;;;3.27;2.90;;;19.40;99.90;;;;;;5041913;28;20463;-67
2023/08/19 06:01:07;;;;;;;2.60;2.40;;;19.50;99.90;;;;;;5040674;28;21010;-67
2023/08/19 06:03:34;;;;;;;3.07;2.77;;;19.50;99.90;;;;;;5038515;28;20545;-67
2023/08/19 06:06:04;;;;;;;2.80;2.50;;;19.70;99.90;;;;;;5042563;28;20486;-67
2023/08/19 06:08:30;;;;;;;5.40;3.00;;;19.70;99.90;;;;;;5043958;28;20517;-66
2023/08/19 06:11:02;;;;;;;4.33;2.80;;;19.90;99.90;;;;;;5041621;28;20462;-67
2023/08/19 06:13:29;;;;;;;4.00;2.93;;;20.00;99.90;;;;;;5043359;28;20970;-67
2023/08/19 06:15:56;;;;;;;3.27;2.97;;;20.10;99.90;;;;;;5037861;28;20458;-67
2023/08/19 06:18:24;;;;;;;6.50;3.30;;;20.30;99.90;;;;;;5032529;28;20837;-67
2023/08/19 06:20:51;;;;;;;3.37;3.07;;;20.40;99.90;;;;;;5032259;28;20466;-66
2023/08/19 06:23:18;;;;;;;3.20;2.53;;;20.50;99.90;;;;;;5032871;28;20479;-66
2023/08/19 06:25:45;;;;;;;3.83;2.90;;;20.60;99.90;;;;;;5032588;28;20541;-66
2023/08/19 06:28:12;;;;;;;4.07;3.13;;;20.80;99.90;;;;;;5032696;28;20831;-66
2023/08/19 06:30:40;;;;;;;3.47;3.10;;;20.90;99.90;;;;;;5032240;28;20491;-67
2023/08/19 06:33:08;;;;;;;3.40;3.10;;;21.10;99.90;;;;;;5032410;28;21019;-65
2023/08/19 06:35:36;;;;;;;3.23;2.80;;;21.20;99.90;;;;;;5032624;28;20454;-64
2023/08/19 06:38:07;;;;;;;2.90;2.70;;;21.40;99.90;;;;;;5032010;28;20457;-64
2023/08/19 06:40:35;;;;;;;4.60;3.53;;;21.60;99.90;;;;;;5032011;28;20480;-64
2023/08/19 06:43:02;;;;;;;3.40;2.57;;;21.70;99.90;;;;;;5031932;28;20492;-64
2023/08/19 06:45:30;;;;;;;3.13;2.83;;;21.80;99.90;;;;;;5032293;28;20488;-65
2023/08/19 06:48:00;;;;;;;3.50;3.23;;;21.90;99.90;;;;;;5031847;28;20838;-65
2023/08/19 06:50:28;;;;;;;5.83;2.93;;;22.00;99.90;;;;;;5034516;28;20498;-65
2023/08/19 06:52:56;;;;;;;8.93;3.30;;;22.10;99.90;;;;;;5031918;28;20456;-66
2023/08/19 06:55:24;;;;;;;3.00;2.70;;;22.10;99.90;;;;;;5032361;28;20541;-65
2023/08/19 06:57:59;;;;;;;3.00;2.70;;;22.20;99.90;;;;;;5031759;28;20462;-66
2023/08/19 07:00:26;;;;;;;3.10;2.80;;;22.30;99.90;;;;;;5032019;28;20483;-66
2023/08/19 07:02:54;;;;;;;3.13;2.80;;;22.40;99.90;;;;;;5031759;28;20468;-65
2023/08/19 07:05:22;;;;;;;3.50;3.20;;;22.50;99.90;;;;;;5031987;28;20536;-65
2023/08/19 07:07:51;;;;;;;3.50;2.63;;;22.60;99.90;;;;;;5031538;28;20466;-66
2023/08/19 07:10:21;;;;;;;3.67;2.77;;;22.80;99.90;;;;;;5031565;28;20478;-66
2023/08/19 07:12:48;;;;;;;3.60;2.90;;;23.00;99.90;;;;;;5031722;28;21249;-65
2023/08/19 07:15:16;;;;;;;4.03;3.17;;;23.00;99.90;;;;;;5031522;28;20954;-66
2023/08/19 07:17:45;;;;;;;5.47;2.90;;;23.20;99.90;;;;;;5031357;28;20459;-65
2023/08/19 07:20:16;;;;;;;2.90;2.70;;;23.40;99.90;;;;;;5031140;28;20484;-66
2023/08/19 07:22:43;;;;;;;3.43;3.07;;;23.40;99.90;;;;;;5031173;28;20954;-65
2023/08/19 07:25:11;;;;;;;2.93;2.43;;;23.60;99.90;;;;;;5031234;28;20488;-65
2023/08/19 07:27:40;;;;;;;3.47;3.17;;;23.80;99.90;;;;;;5031423;28;20461;-65
2023/08/19 07:30:08;;;;;;;6.83;3.03;;;23.80;99.90;;;;;;5030470;28;20475;-66
2023/08/19 07:32:36;;;;;;;3.17;2.67;;;23.90;99.90;;;;;;5031467;28;20456;-66
2023/08/19 07:35:04;;;;;;;3.80;3.50;;;24.00;99.90;;;;;;5031124;28;20884;-65
2023/08/19 07:37:31;;;;;;;3.53;3.20;;;24.10;99.90;;;;;;5031214;28;20479;-65
2023/08/19 07:39:58;;;;;;;4.13;3.13;;;24.20;99.90;;;;;;5030425;28;20519;-65
2023/08/19 07:42:25;;;;;;;2.97;2.73;;;24.30;99.90;;;;;;5031658;28;20801;-65
2023/08/19 07:44:53;;;;;;;4.50;3.40;;;24.50;99.90;;;;;;5030538;28;20487;-64
2023/08/19 07:47:19;;;;;;;4.27;3.17;;;24.60;99.90;;;;;;5022599;28;20956;-65
2023/08/19 07:49:46;;;;;;;3.20;2.90;;;24.70;99.90;;;;;;5030384;28;20473;-65
2023/08/19 07:52:13;;;;;;;2.90;2.60;;;24.90;99.90;;;;;;5030893;28;20460;-64
2023/08/19 07:54:40;;;;;;;4.23;3.40;;;25.00;99.90;;;;;;5030664;28;20841;-65
2023/08/19 07:57:07;;;;;;;5.10;3.10;;;25.10;99.90;;;;;;5030298;28;20463;-66
2023/08/19 07:59:34;;;;;;;4.97;3.30;;;25.20;99.90;;;;;;5030280;28;20587;-64
2023/08/19 08:02:02;;;;;;;3.23;2.77;;;25.30;99.90;;;;;;5030537;28;20465;-65
2023/08/19 08:04:29;;;;;;;4.33;3.40;;;25.40;99.90;;;;;;5031098;28;20555;-64
2023/08/19 08:06:56;;;;;;;5.07;3.07;;;25.60;99.90;;;;;;5030639;28;20457;-65
2023/08/19 08:09:22;;;;;;;3.00;2.67;;;25.70;99.90;;;;;;5022912;28;20988;-66
2023/08/19 08:11:49;;;;;;;4.47;3.10;;;25.80;99.90;;;;;;5030610;28;20460;-65
2023/08/19 08:14:16;;;;;;;3.93;2.87;;;25.90;99.90;;;;;;5030602;28;20464;-65
2023/08/19 08:16:43;;;;;;;3.27;2.93;;;26.00;99.90;;;;;;5030117;28;20510;-65
2023/08/19 08:19:11;;;;;;;3.20;2.90;;;26.20;99.90;;;;;;5030284;28;20980;-65
2023/08/19 08:21:37;;;;;;;4.90;3.30;;;26.30;99.90;;;;;;5030294;28;20460;-65
2023/08/19 08:24:05;;;;;;;3.23;2.90;;;26.40;99.90;;;;;;5030103;28;20460;-65
2023/08/19 08:26:32;;;;;;;3.43;2.97;;;26.50;99.90;;;;;;5030268;28;20480;-65
2023/08/19 08:28:58;;;;;;;4.87;3.17;;;26.50;99.90;;;;;;5029845;28;20492;-65
2023/08/19 08:31:25;;;;;;;6.97;2.70;;;26.60;99.90;;;;;;5030004;28;20472;-66
2023/08/19 08:33:52;;;;;;;2.77;2.57;;;26.80;99.90;;;;;;5030218;28;20456;-66
2023/08/19 08:36:20;;;;;;;4.37;3.23;;;26.80;99.90;;;;;;5030099;28;20460;-65
2023/08/19 08:38:47;;;;;;;2.53;2.33;;;26.90;99.90;;;;;;5027365;28;20826;-66
2023/08/19 08:41:14;;;;;;;3.37;3.07;;;27.00;99.90;;;;;;5028880;28;20464;-66
2023/08/19 08:43:41;;;;;;;4.33;3.03;;;27.10;99.90;;;;;;5026867;28;20866;-65
2023/08/19 08:46:08;;;;;;;4.20;3.00;;;27.10;99.90;;;;;;5029594;28;20484;-66
2023/08/19 08:48:36;;;;;;;3.63;2.80;;;27.30;99.90;;;;;;5029757;28;20487;-65
2023/08/19 08:51:03;;;;;;;3.13;2.83;;;27.50;99.90;;;;;;5029454;28;20463;-65
2023/08/19 08:53:31;;;;;;;4.20;3.27;;;27.60;99.90;;;;;;5029808;28;20460;-65
2023/08/19 08:55:59;;;;;;;3.30;3.00;;;27.70;99.90;;;;;;5029604;28;20457;-65
2023/08/19 08:58:26;;;;;;;3.20;2.90;;;27.90;99.90;;;;;;5029490;28;20463;-65
2023/08/19 09:00:53;;;;;;;3.20;2.90;;;28.00;99.90;;;;;;5029519;28;20459;-66
2023/08/19 09:03:24;;;;;;;3.20;2.90;;;28.10;99.90;;;;;;5029685;28;20453;-65
2023/08/19 09:05:56;;;;;;;3.50;2.93;;;28.20;99.90;;;;;;5029677;28;20480;-65
2023/08/19 09:08:34;;;;;;;3.30;2.50;;;28.30;99.90;;;;;;5029501;28;20456;-65
2023/08/19 09:11:05;;;;;;;4.17;3.00;;;28.50;99.90;;;;;;5028694;28;20460;-66
2023/08/19 09:13:33;;;;;;;2.87;2.67;;;28.60;99.90;;;;;;5022152;28;20468;-66
2023/08/19 09:16:00;;;;;;;3.80;2.93;;;28.80;99.90;;;;;;5029616;28;20467;-66
2023/08/19 09:18:27;;;;;;;4.93;3.00;;;28.90;99.90;;;;;;5029010;28;20956;-65
2023/08/19 09:20:54;;;;;;;4.03;3.00;;;29.00;99.90;;;;;;5029242;28;20448;-66
2023/08/19 09:23:21;;;;;;;3.70;3.40;;;29.10;99.90;;;;;;5029524;28;20456;-66
2023/08/19 09:25:48;;;;;;;3.50;3.20;;;29.20;99.90;;;;;;5029396;28;20484;-65
2023/08/19 09:28:18;;;;;;;3.17;2.70;;;29.30;99.90;;;;;;5029496;28;20456;-66
2023/08/19 09:30:45;;;;;;;3.60;2.60;;;29.40;99.90;;;;;;5029137;28;20530;-65
2023/08/19 09:33:19;;;;;;;3.67;3.37;;;29.60;99.90;;;;;;5029575;28;20833;-65
2023/08/19 09:35:55;;;;;;;4.73;3.13;;;29.70;99.90;;;;;;5029057;28;20995;-66
2023/08/19 09:38:24;;;;;;;3.03;2.73;;;29.80;99.90;;;;;;5029214;28;20847;-66
2023/08/19 09:40:59;;;;;;;4.30;3.10;;;29.90;99.90;;;;;;5028886;28;20456;-65
2023/08/19 09:43:27;;;;;;;3.27;2.97;;;30.00;99.90;;;;;;5029404;28;20460;-65
2023/08/19 09:45:57;;;;;;;2.90;2.70;;;30.10;99.90;;;;;;5029058;28;20480;-65
2023/08/19 09:48:23;;;;;;;4.10;3.03;;;30.20;99.90;;;;;;5029203;28;20456;-66
2023/08/19 09:50:50;;;;;;;3.50;3.20;;;30.20;99.90;;;;;;5028701;28;20548;-66
2023/08/19 09:53:18;;;;;;;3.70;3.40;;;30.30;99.90;;;;;;5027440;28;20522;-66
2023/08/19 09:55:46;;;;;;;3.60;3.07;;;30.50;99.90;;;;;;5031207;28;20459;-66
2023/08/19 09:58:13;;;;;;;5.07;3.27;;;30.60;99.90;;;;;;5032456;28;20456;-65
2023/08/19 10:00:41;;;;;;;4.20;3.50;;;30.60;99.90;;;;;;5031803;28;20486;-66
2023/08/19 10:03:08;;;;;;;5.60;3.13;;;30.70;99.90;;;;;;5032526;28;20495;-65
2023/08/19 10:05:39;;;;;;;3.77;3.20;;;30.80;99.90;;;;;;5032576;28;20571;-66
2023/08/19 10:08:08;;;;;;;5.27;4.17;;;31.00;99.90;;;;;;5031664;28;20822;-66
2023/08/19 10:10:42;;;;;;;4.43;3.23;;;31.10;99.90;;;;;;5032230;28;20480;-65
2023/08/19 10:13:12;;;;;;;3.70;2.60;;;31.10;99.90;;;;;;5032493;28;20464;-66
2023/08/19 10:15:41;;;;;;;4.67;2.90;;;31.30;99.90;;;;;;5032270;28;20449;-66
2023/08/19 10:18:12;;;;;;;3.20;2.90;;;31.40;99.90;;;;;;5032259;28;20467;-66
2023/08/19 10:20:41;;;;;;;3.20;2.97;;;31.60;99.90;;;;;;5028748;28;20992;-66
2023/08/19 10:23:09;;;;;;;3.30;2.60;;;31.70;99.90;;;;;;5028524;28;20468;-65
2023/08/19 10:25:40;;;;;;;4.30;3.07;;;31.80;99.90;;;;;;5024062;28;20484;-65
2023/08/19 10:28:10;;;;;;;3.00;2.80;;;31.70;99.90;;;;;;5032052;28;20460;-66
2023/08/19 10:30:37;;;;;;;3.10;2.80;;;31.80;99.90;;;;;;5031370;28;20476;-66
2023/08/19 10:33:06;;;;;;;2.97;2.73;;;31.80;99.90;;;;;;5031622;28;20452;-65
2023/08/19 10:35:59;;;;;;;4.40;3.00;;;31.90;99.90;;;;;;5032057;28;20460;-66
2023/08/19 10:38:26;;;;;;;3.23;2.93;;;32.00;99.90;;;;;;5031345;28;20522;-66
2023/08/19 10:41:03;;;;;;;2.60;2.40;;;32.10;99.90;;;;;;5031196;28;20460;-66
2023/08/19 10:43:48;;;;;;;4.17;2.90;;;32.30;99.90;;;;;;5031584;28;20960;-65
2023/08/19 10:46:18;;;;;;;3.00;2.70;;;32.30;99.90;;;;;;5031549;28;20538;-66
2023/08/19 10:48:50;;;;;;;6.00;3.37;;;32.40;99.90;;;;;;5031796;28;20480;-66
2023/08/19 10:51:19;;;;;;;3.03;2.73;;;32.60;99.90;;;;;;5031656;28;20461;-68
2023/08/19 10:53:50;;;;;;;3.20;2.90;;;32.60;99.90;;;;;;5031278;28;20460;-65
2023/08/19 10:56:20;;;;;;;2.83;2.63;;;32.70;99.90;;;;;;5030706;28;20507;-66
2023/08/19 10:58:49;;;;;;;3.33;3.00;;;32.80;99.90;;;;;;5031401;28;20512;-65
2023/08/19 11:01:15;;;;;;;3.83;2.70;;;32.80;99.90;;;;;;5030808;28;20550;-66
2023/08/19 11:03:43;;;;;;;3.40;2.80;;;32.90;99.90;;;;;;5031476;28;20828;-66
2023/08/19 11:06:09;;;;;;;3.33;2.87;;;32.90;99.90;;;;;;5030884;28;20928;-66
2023/08/19 11:08:44;;;;;;;3.67;2.90;;;33.00;99.90;;;;;;5030375;28;20456;-65
2023/08/19 11:11:16;;;;;;;2.83;2.63;;;33.10;99.90;;;;;;5031414;28;20467;-65
2023/08/19 11:13:43;;;;;;;3.27;2.80;;;33.20;99.90;;;;;;5031123;28;20456;-65
2023/08/19 11:16:10;;;;;;;2.60;2.40;;;33.40;99.90;;;;;;5031294;28;20463;-66
2023/08/19 11:18:40;;;;;;;3.80;3.50;;;33.50;99.90;;;;;;5097038;22;20950;-67
2023/08/19 11:21:06;;;;;;;3.27;2.80;;;33.60;99.90;;;;;;5066513;28;20545;-67
2023/08/19 11:23:33;;;;;;;3.60;2.87;;;33.60;99.90;;;;;;5070983;28;20454;-66
2023/08/19 11:26:02;;;;;;;3.50;2.87;;;33.70;99.90;;;;;;5071054;28;20471;-68
2023/08/19 11:28:29;;;;;;;3.60;3.27;;;33.80;99.90;;;;;;5070308;28;20459;-68
2023/08/19 11:30:56;;;;;;;2.70;2.50;;;33.90;99.90;;;;;;5047546;28;20536;-67
2023/08/19 11:33:26;;;;;;;2.93;2.73;;;33.90;99.90;;;;;;5048056;28;20456;-67
2023/08/19 11:35:52;;;;;;;4.07;3.03;;;34.00;97.80;;;;;;5051127;28;20455;-67
2023/08/19 11:38:19;;;;;;;5.10;3.30;;;34.00;99.90;;;;;;5045076;28;21147;-67
2023/08/19 11:44:14;;;;;;;3.40;3.10;;;34.20;99.90;;;;;;5106245;27;20456;-68
2023/08/19 11:46:41;;;;;;;3.00;2.70;;;34.10;99.90;;;;;;5107735;28;20195;-68
2023/08/19 11:49:09;;;;;;;3.30;3.00;;;34.10;99.90;;;;;;5100336;28;20481;-68
2023/08/19 11:51:37;;;;;;;3.23;2.93;;;34.00;99.90;;;;;;5087224;28;20456;-69
2023/08/19 11:54:06;;;;;;;3.47;3.17;;;34.00;99.90;;;;;;5087627;28;20484;-69
2023/08/19 11:56:46;;;;;;;3.57;2.97;;;34.00;99.80;;;;;;5087260;28;20453;-68
2023/08/19 11:59:14;;;;;;;3.37;2.90;;;34.10;99.90;;;;;;5081666;28;20470;-68
2023/08/19 12:01:41;;;;;;;6.03;3.10;;;34.20;99.90;;;;;;5086622;28;20462;-68
2023/08/19 12:04:11;;;;;;;3.83;3.40;;;34.30;99.90;;;;;;5086549;28;20478;-68
2023/08/19 12:06:38;;;;;;;3.23;2.93;;;34.40;99.30;;;;;;5085651;28;20535;-69
2023/08/19 12:09:06;;;;;;;2.93;2.73;;;34.50;99.90;;;;;;5086555;28;20474;-68
2023/08/19 12:11:34;;;;;;;3.50;3.20;;;34.70;99.90;;;;;;5086545;28;20457;-68
2023/08/19 12:14:00;;;;;;;4.87;3.40;;;34.70;99.90;;;;;;5086984;28;20450;-68
2023/08/19 12:16:28;;;;;;;3.53;3.30;;;34.80;99.90;;;;;;5086310;28;20450;-68
2023/08/19 12:18:57;;;;;;;3.50;3.20;;;34.90;98.50;;;;;;5086869;28;20489;-68
2023/08/19 12:21:24;;;;;;;3.60;3.07;;;35.00;99.90;;;;;;5086403;28;20853;-68
2023/08/19 12:23:50;;;;;;;3.03;2.80;;;35.10;99.90;;;;;;5084310;28;20477;-68
2023/08/19 12:26:17;;;;;;;3.47;3.17;;;35.20;98.50;;;;;;5077955;28;20461;-68
2023/08/19 12:28:44;;;;;;;3.43;3.10;;;35.20;97.60;;;;;;5086422;28;20469;-68
2023/08/19 12:31:11;;;;;;;3.27;2.97;;;35.30;98.90;;;;;;5086148;28;20845;-68
2023/08/19 12:33:40;;;;;;;3.83;3.43;;;35.10;96.10;;;;;;5086358;28;20446;-68
2023/08/19 12:36:07;;;;;;;3.37;3.10;;;35.00;98.60;;;;;;5086885;28;20902;-68
2023/08/19 12:38:34;;;;;;;3.30;3.00;;;34.90;97.50;;;;;;5084220;28;20496;-68
2023/08/19 12:41:02;;;;;;;4.83;3.50;;;34.70;98.10;;;;;;5085653;28;20457;-68
2023/08/19 12:43:29;;;;;;;3.70;2.97;;;34.60;99.90;;;;;;5085564;28;20482;-68
2023/08/19 12:45:56;;;;;;;4.80;3.13;;;34.50;99.10;;;;;;5085562;28;20462;-68
2023/08/19 12:48:22;;;;;;;4.37;3.10;;;34.40;99.90;;;;;;5085394;28;20461;-67
2023/08/19 12:50:50;;;;;;;3.20;2.90;;;34.30;99.90;;;;;;5085850;28;21034;-66
2023/08/19 12:53:17;;;;;;;3.33;3.13;;;34.20;99.90;;;;;;5084791;28;20450;-68
2023/08/19 12:55:44;;;;;;;3.37;3.07;;;34.00;99.90;;;;;;5071159;28;20477;-66